createdAt,value
2022-08-03T00:00:19.539Z,20.30
2022-08-03T00:04:33.634Z,20.20
2022-08-03T00:08:40.201Z,20.20
2022-08-03T00:12:43.269Z,20.10
2022-08-03T00:16:46.096Z,20.00
2022-08-03T00:20:50.201Z,20.00
2022-08-03T00:24:52.991Z,19.90
2022-08-03T00:28:55.862Z,19.90
2022-08-03T00:32:59.269Z,19.80
2022-08-03T00:37:03.646Z,19.70
2022-08-03T00:41:06.458Z,19.70
2022-08-03T00:45:09.840Z,19.70
2022-08-03T00:49:12.700Z,19.60
2022-08-03T00:53:17.020Z,19.60
2022-08-03T00:57:21.241Z,19.60
2022-08-03T01:01:24.146Z,19.60
2022-08-03T01:05:27.408Z,19.60
2022-08-03T01:09:37.820Z,19.70
2022-08-03T01:14:04.578Z,19.70
2022-08-03T01:18:18.521Z,19.60
2022-08-03T01:22:41.245Z,19.60
2022-08-03T01:26:55.069Z,19.50
2022-08-03T01:31:05.983Z,19.40
2022-08-03T01:35:13.253Z,19.40
2022-08-03T01:39:17.356Z,19.40
2022-08-03T01:43:55.147Z,19.40
2022-08-03T01:47:49.317Z,19.30
2022-08-03T01:52:02.884Z,19.30
2022-08-03T01:56:08.410Z,19.30
2022-08-03T02:00:12.296Z,19.30
2022-08-03T02:04:19.210Z,19.20
2022-08-03T02:08:28.032Z,19.20
2022-08-03T02:12:35.509Z,19.20
2022-08-03T02:16:38.392Z,19.20
2022-08-03T02:20:45.204Z,19.10
2022-08-03T02:24:50.938Z,19.10
2022-08-03T02:28:57.239Z,19.10
2022-08-03T02:33:01.665Z,19.10
2022-08-03T02:37:07.751Z,19.00
2022-08-03T02:41:16.325Z,19.00
2022-08-03T02:45:21.181Z,18.90
2022-08-03T02:49:40.865Z,18.90
2022-08-03T02:53:51.769Z,18.90
2022-08-03T02:57:56.566Z,18.80
2022-08-03T03:02:05.489Z,18.80
2022-08-03T03:06:10.199Z,18.70
2022-08-03T03:10:14.401Z,18.70
2022-08-03T03:14:18.411Z,18.70
2022-08-03T03:18:38.431Z,18.60
2022-08-03T03:22:45.262Z,18.60
2022-08-03T03:26:49.813Z,18.50
2022-08-03T03:30:53.518Z,18.50
2022-08-03T03:34:59.106Z,18.40
2022-08-03T03:39:15.775Z,18.30
2022-08-03T03:43:20.309Z,18.30
2022-08-03T03:47:32.834Z,18.20
2022-08-03T03:51:36.148Z,18.20
2022-08-03T03:55:57.735Z,18.20
2022-08-03T04:00:03.802Z,18.10
2022-08-03T04:04:21.270Z,18.10
2022-08-03T04:08:42.483Z,18.10
2022-08-03T04:12:51.544Z,18.10
2022-08-03T04:16:59.506Z,18.10
2022-08-03T04:21:05.325Z,18.10
2022-08-03T04:25:11.276Z,18.10
2022-08-03T04:29:15.477Z,18.20
2022-08-03T04:33:20.466Z,18.30
2022-08-03T04:37:34.021Z,18.30
2022-08-03T04:42:07.551Z,18.30
2022-08-03T04:46:00.996Z,18.40
2022-08-03T04:50:12.203Z,18.40
2022-08-03T04:54:17.484Z,18.50
2022-08-03T04:58:20.334Z,18.50
2022-08-03T05:02:23.546Z,18.50
2022-08-03T05:06:28.584Z,18.50
2022-08-03T05:10:31.412Z,18.50
2022-08-03T05:14:36.097Z,18.60
2022-08-03T05:18:39.081Z,18.70
2022-08-03T05:22:43.279Z,18.80
2022-08-03T05:26:46.037Z,19.00
2022-08-03T05:30:48.885Z,19.10
2022-08-03T05:34:51.704Z,19.20
2022-08-03T05:38:58.529Z,19.60
2022-08-03T05:43:05.078Z,21.80
2022-08-03T05:47:08.190Z,22.20
2022-08-03T05:51:12.285Z,22.70
2022-08-03T05:55:17.070Z,22.60
2022-08-03T05:59:37.488Z,22.20
2022-08-03T06:03:40.693Z,21.90
2022-08-03T06:07:43.533Z,21.80
2022-08-03T06:11:47.612Z,22.00
2022-08-03T06:15:50.351Z,22.20
2022-08-03T06:19:54.319Z,22.30
2022-08-03T06:23:57.147Z,22.50
2022-08-03T06:28:01.294Z,22.70
2022-08-03T06:32:04.198Z,22.80
2022-08-03T06:36:07.643Z,22.80
2022-08-03T06:40:13.963Z,22.90
2022-08-03T06:44:18.206Z,23.50
2022-08-03T06:48:20.946Z,24.20
2022-08-03T06:52:37.728Z,24.10
2022-08-03T06:56:41.370Z,24.10
2022-08-03T07:00:45.485Z,24.60
2022-08-03T07:04:48.477Z,24.70
2022-08-03T07:08:53.665Z,24.60
2022-08-03T07:12:58.221Z,24.60
2022-08-03T07:17:04.654Z,24.70
2022-08-03T07:21:16.148Z,24.80
2022-08-03T07:25:19.805Z,25.00
2022-08-03T07:29:22.588Z,25.20
2022-08-03T07:33:26.858Z,25.90
2022-08-03T07:37:30.665Z,27.30
2022-08-03T07:41:33.515Z,28.00
2022-08-03T07:45:37.069Z,29.70
2022-08-03T07:49:44.077Z,31.00
2022-08-03T07:53:47.155Z,32.50
2022-08-03T07:58:04.665Z,33.40
2022-08-03T08:02:08.208Z,33.30
2022-08-03T08:06:12.355Z,33.40
2022-08-03T08:10:16.456Z,33.30
2022-08-03T08:14:19.292Z,33.00
2022-08-03T08:18:22.089Z,32.70
2022-08-03T08:22:30.655Z,32.60
2022-08-03T08:26:34.292Z,32.70
2022-08-03T08:30:37.084Z,32.60
2022-08-03T08:34:39.944Z,32.50
2022-08-03T08:38:45.052Z,32.60
2022-08-03T08:42:57.889Z,32.50
2022-08-03T08:47:04.366Z,32.10
2022-08-03T08:51:07.836Z,31.90
2022-08-03T08:55:17.107Z,32.40
2022-08-03T08:59:20.701Z,32.50
2022-08-03T09:03:29.531Z,32.30
2022-08-03T09:07:34.150Z,32.50
2022-08-03T09:12:00.800Z,32.90
2022-08-03T09:16:15.565Z,32.60
2022-08-03T09:20:18.821Z,32.20
2022-08-03T09:24:40.806Z,32.00
2022-08-03T09:29:03.742Z,31.70
2022-08-03T09:33:09.653Z,31.70
2022-08-03T09:37:15.997Z,31.80
2022-08-03T09:41:19.803Z,32.00
2022-08-03T09:45:28.843Z,32.30
2022-08-03T09:49:31.711Z,32.30
2022-08-03T09:53:58.555Z,32.60
2022-08-03T09:58:07.273Z,32.60
2022-08-03T10:02:22.527Z,32.90
2022-08-03T10:06:28.941Z,32.90
2022-08-03T10:10:43.838Z,33.00
2022-08-03T10:14:48.044Z,32.90
2022-08-03T10:18:52.318Z,32.70
2022-08-03T10:22:55.881Z,32.80
2022-08-03T10:27:02.785Z,33.00
2022-08-03T10:31:07.716Z,32.90
2022-08-03T10:35:20.996Z,32.70
2022-08-03T10:39:28.542Z,32.90
2022-08-03T10:43:39.419Z,33.00
2022-08-03T10:47:42.533Z,33.20
2022-08-03T10:51:48.781Z,33.30
2022-08-03T10:56:17.375Z,33.50
2022-08-03T11:00:44.892Z,33.20
2022-08-03T11:04:47.784Z,33.20
2022-08-03T11:09:17.435Z,33.00
2022-08-03T11:13:21.885Z,32.90
2022-08-03T11:17:25.234Z,33.00
2022-08-03T11:21:57.115Z,33.00
2022-08-03T11:26:18.437Z,32.90
2022-08-03T11:30:27.533Z,33.00
2022-08-03T11:34:30.761Z,33.20
2022-08-03T11:38:33.659Z,33.50
2022-08-03T11:42:43.919Z,33.30
2022-08-03T11:46:46.810Z,33.10
2022-08-03T11:50:50.515Z,33.00
2022-08-03T11:54:57.005Z,33.00
2022-08-03T11:59:20.440Z,33.10
2022-08-03T12:03:24.675Z,33.10
2022-08-03T12:08:05.034Z,33.40
2022-08-03T12:11:59.762Z,33.40
2022-08-03T12:16:05.455Z,33.20
2022-08-03T12:20:10.520Z,33.30
2022-08-03T12:24:13.342Z,33.50
2022-08-03T12:28:37.361Z,33.60
2022-08-03T12:32:44.777Z,33.50
2022-08-03T12:36:52.334Z,33.60
2022-08-03T12:41:02.762Z,33.70
2022-08-03T12:45:22.798Z,33.90
2022-08-03T12:49:28.164Z,33.80
2022-08-03T12:53:31.089Z,33.50
2022-08-03T12:57:42.775Z,33.30
2022-08-03T13:01:52.216Z,33.50
2022-08-03T13:06:00.181Z,33.40
2022-08-03T13:10:07.864Z,33.40
2022-08-03T13:14:16.697Z,33.60
2022-08-03T13:18:22.645Z,33.60
2022-08-03T13:22:29.313Z,33.60
2022-08-03T13:26:32.096Z,33.70
2022-08-03T13:30:34.913Z,33.70
2022-08-03T13:34:38.645Z,33.70
2022-08-03T13:38:42.870Z,33.50
2022-08-03T13:42:49.180Z,33.30
2022-08-03T13:46:52.090Z,33.30
2022-08-03T13:50:54.883Z,33.50
2022-08-03T13:54:59.790Z,33.80
2022-08-03T13:59:02.609Z,33.70
2022-08-03T14:03:13.145Z,33.70
2022-08-03T14:07:17.129Z,34.20
2022-08-03T14:11:21.523Z,34.40
2022-08-03T14:15:26.534Z,34.60
2022-08-03T14:19:29.346Z,34.80
2022-08-03T14:23:32.341Z,35.20
2022-08-03T14:27:37.097Z,35.70
2022-08-03T14:32:10.466Z,36.00
2022-08-03T14:36:02.684Z,36.40
2022-08-03T14:40:07.222Z,36.70
2022-08-03T14:44:11.817Z,36.70
2022-08-03T14:50:34.938Z,35.90
2022-08-03T14:52:37.467Z,35.60
2022-08-03T14:56:40.295Z,35.60
2022-08-03T15:00:44.448Z,36.20
2022-08-03T15:04:47.271Z,36.20
2022-08-03T15:09:06.267Z,36.10
2022-08-03T15:13:13.658Z,36.00
2022-08-03T15:17:18.123Z,36.20
2022-08-03T15:21:45.962Z,36.40
2022-08-03T15:26:29.552Z,36.40
2022-08-03T15:30:10.381Z,36.40
2022-08-03T15:34:14.751Z,36.40
2022-08-03T15:38:17.568Z,36.50
2022-08-03T15:42:20.531Z,36.90
2022-08-03T15:46:29.490Z,37.10
2022-08-03T15:50:34.049Z,37.10
2022-08-03T15:54:36.904Z,36.70
2022-08-03T15:59:04.410Z,36.40
2022-08-03T16:03:02.902Z,37.00
2022-08-03T16:07:07.105Z,37.20
2022-08-03T16:11:10.123Z,37.30
2022-08-03T16:15:14.036Z,37.20
2022-08-03T16:19:17.031Z,36.90
2022-08-03T16:23:21.149Z,37.00
2022-08-03T16:28:00.509Z,36.90
2022-08-03T16:31:51.267Z,36.40
2022-08-03T16:35:54.315Z,35.90
2022-08-03T16:39:58.432Z,35.30
2022-08-03T16:44:04.333Z,35.00
2022-08-03T16:48:09.589Z,35.20
2022-08-03T16:52:13.021Z,35.10
2022-08-03T16:56:17.336Z,34.90
2022-08-03T17:00:33.764Z,34.40
2022-08-03T17:04:40.096Z,34.00
2022-08-03T17:08:43.655Z,33.80
2022-08-03T17:12:59.451Z,33.60
2022-08-03T17:17:04.867Z,33.60
2022-08-03T17:21:10.151Z,33.40
2022-08-03T17:25:22.157Z,33.10
2022-08-03T17:29:45.122Z,32.70
2022-08-03T17:33:54.928Z,32.40
2022-08-03T17:38:03.312Z,32.10
2022-08-03T17:42:29.499Z,31.80
2022-08-03T17:46:33.522Z,31.50
2022-08-03T17:50:42.883Z,31.40
2022-08-03T17:55:55.732Z,31.30
2022-08-03T17:59:51.749Z,31.20
2022-08-03T18:03:58.135Z,31.00
2022-08-03T18:08:24.857Z,30.80
2022-08-03T18:12:33.908Z,30.80
2022-08-03T18:16:39.966Z,30.60
2022-08-03T18:20:45.484Z,30.40
2022-08-03T18:24:50.537Z,30.40
2022-08-03T18:28:54.894Z,30.30
2022-08-03T18:33:00.379Z,30.20
2022-08-03T18:37:13.265Z,30.20
2022-08-03T18:41:32.872Z,30.00
2022-08-03T18:45:55.886Z,29.80
2022-08-03T18:50:09.401Z,29.60
2022-08-03T18:54:51.700Z,29.40
2022-08-03T18:58:51.471Z,29.30
2022-08-03T19:02:58.726Z,29.10
2022-08-03T19:07:04.917Z,28.90
2022-08-03T19:11:17.612Z,28.80
2022-08-03T19:15:36.454Z,28.60
2022-08-03T19:19:44.581Z,28.40
2022-08-03T19:23:49.614Z,28.20
2022-08-03T19:27:54.533Z,28.10
2022-08-03T19:32:01.784Z,27.90
2022-08-03T19:36:10.302Z,27.80
2022-08-03T19:40:13.622Z,27.70
2022-08-03T19:44:23.863Z,27.60
2022-08-03T19:48:30.140Z,27.60
2022-08-03T19:52:36.431Z,27.40
2022-08-03T19:56:45.250Z,27.30
2022-08-03T20:00:52.146Z,27.10
2022-08-03T20:04:56.212Z,26.90
2022-08-03T20:08:59.499Z,26.80
2022-08-03T20:13:03.405Z,26.60
2022-08-03T20:17:09.149Z,26.50
2022-08-03T20:21:18.538Z,26.30
2022-08-03T20:25:25.555Z,26.20
2022-08-03T20:30:06.400Z,26.10
2022-08-03T20:34:11.638Z,26.00
2022-08-03T20:38:20.685Z,25.90
2022-08-03T20:42:30.314Z,25.80
2022-08-03T20:46:52.925Z,25.70
2022-08-03T20:50:57.707Z,25.60
2022-08-03T20:55:02.196Z,25.50
2022-08-03T20:59:07.019Z,25.40
2022-08-03T21:03:17.695Z,25.30
2022-08-03T21:07:24.939Z,25.40
2022-08-03T21:11:51.296Z,25.40
2022-08-03T21:16:06.396Z,25.30
2022-08-03T21:20:22.904Z,25.10
2022-08-03T21:24:31.416Z,25.00
2022-08-03T21:28:35.919Z,24.80
2022-08-03T21:32:40.196Z,24.60
2022-08-03T21:36:43.301Z,24.50
2022-08-03T21:40:49.831Z,24.50
2022-08-03T21:44:53.035Z,24.40
2022-08-03T21:50:07.750Z,24.40
2022-08-03T21:53:28.103Z,24.40
2022-08-03T21:57:54.037Z,24.20
2022-08-03T22:01:58.587Z,24.00
2022-08-03T22:06:04.891Z,24.00
2022-08-03T22:10:09.643Z,23.90
2022-08-03T22:14:13.907Z,23.90
2022-08-03T22:18:17.373Z,23.80
2022-08-03T22:22:21.794Z,23.80
2022-08-03T22:26:34.949Z,23.70
2022-08-03T22:30:41.206Z,23.60
2022-08-03T22:34:44.909Z,23.50
2022-08-03T22:38:48.793Z,23.40
2022-08-03T22:42:52.791Z,23.40
2022-08-03T22:46:56.937Z,23.40
2022-08-03T22:51:00.597Z,23.40
2022-08-03T22:55:06.115Z,23.20
2022-08-03T22:59:40.283Z,23.20
2022-08-03T23:03:59.804Z,23.10
2022-08-03T23:08:03.451Z,23.00
2022-08-03T23:12:07.130Z,22.90
2022-08-03T23:16:10.396Z,22.80
2022-08-03T23:20:15.267Z,22.70
2022-08-03T23:24:29.508Z,22.70
2022-08-03T23:28:33.048Z,22.60
2022-08-03T23:32:36.902Z,22.50
2022-08-03T23:36:43.092Z,22.60
2022-08-03T23:40:46.037Z,22.70
2022-08-03T23:45:05.386Z,22.60
2022-08-03T23:49:09.278Z,22.50
2022-08-03T23:53:32.989Z,22.40
2022-08-03T23:57:56.092Z,22.30
